createdAt,value
2017-04-23T00:00:47.152Z,17.79
2017-04-23T00:01:57.158Z,17.69
2017-04-23T00:03:07.397Z,17.71
2017-04-23T00:04:17.678Z,17.69
2017-04-23T00:05:27.648Z,17.63
2017-04-23T00:06:37.923Z,17.75
2017-04-23T00:07:47.887Z,17.71
2017-04-23T00:08:58.098Z,17.6
2017-04-23T00:10:08.389Z,17.79
2017-04-23T00:11:18.671Z,17.69
2017-04-23T00:12:28.943Z,17.69
2017-04-23T00:13:39.244Z,17.76
2017-04-23T00:14:49.781Z,17.6
2017-04-23T00:16:00.049Z,17.68
2017-04-23T00:17:10.024Z,17.73
2017-04-23T00:18:20.014Z,17.73
2017-04-23T00:19:30.334Z,17.72
2017-04-23T00:20:40.918Z,17.71
2017-04-23T00:21:51.199Z,17.71
2017-04-23T00:23:01.180Z,17.68
2017-04-23T00:24:10.886Z,17.66
2017-04-23T00:25:20.850Z,17.68
2017-04-23T00:26:31.393Z,17.72
2017-04-23T00:27:41.356Z,17.65
2017-04-23T00:28:51.326Z,17.63
2017-04-23T00:30:01.282Z,17.69
2017-04-23T00:31:10.929Z,17.6
2017-04-23T00:32:21.465Z,17.69
2017-04-23T00:33:31.747Z,17.68
2017-04-23T00:34:42.021Z,17.72
2017-04-23T00:35:52.295Z,17.68
2017-04-23T00:37:02.258Z,17.66
2017-04-23T00:38:12.162Z,17.68
2017-04-23T00:39:22.439Z,17.71
2017-04-23T00:40:32.100Z,17.65
2017-04-23T00:41:42.068Z,17.66
2017-04-23T00:42:52.341Z,17.6
2017-04-23T00:44:02.560Z,17.71
2017-04-23T00:45:12.529Z,17.68
2017-04-23T00:46:22.798Z,17.63
2017-04-23T00:47:32.762Z,17.69
2017-04-23T00:48:43.045Z,17.66
2017-04-23T00:49:53.578Z,17.66
2017-04-23T00:51:03.851Z,17.68
2017-04-23T00:52:13.815Z,17.68
2017-04-23T00:53:24.150Z,17.68
2017-04-23T00:54:34.139Z,17.63
2017-04-23T00:55:44.352Z,17.65
2017-04-23T00:56:54.633Z,17.6
2017-04-23T00:58:04.934Z,17.69
2017-04-23T00:59:15.213Z,17.69
2017-04-23T01:00:25.505Z,17.66
2017-04-23T01:01:36.079Z,17.68
2017-04-23T01:02:45.730Z,17.71
2017-04-23T01:03:56.003Z,17.68
2017-04-23T01:05:05.972Z,17.68
2017-04-23T01:06:16.248Z,17.71
2017-04-23T01:07:26.781Z,17.72
2017-04-23T01:08:36.750Z,17.66
2017-04-23T01:09:47.026Z,17.65
2017-04-23T01:10:56.996Z,17.63
2017-04-23T01:12:07.280Z,17.66
2017-04-23T01:13:17.828Z,17.69
2017-04-23T01:14:27.796Z,17.69
2017-04-23T01:15:37.761Z,17.68
2017-04-23T01:16:47.733Z,17.57
2017-04-23T01:17:58.016Z,17.75
2017-04-23T01:19:08.233Z,17.69
2017-04-23T01:20:18.510Z,17.66
2017-04-23T01:21:28.785Z,17.71
2017-04-23T01:22:39.061Z,17.59
2017-04-23T01:23:49.348Z,17.68
2017-04-23T01:24:59.261Z,17.68
2017-04-23T01:26:09.563Z,17.59
2017-04-23T01:27:19.837Z,17.66
2017-04-23T01:28:29.808Z,17.63
2017-04-23T01:29:40.091Z,17.65
2017-04-23T01:30:50.616Z,17.63
2017-04-23T01:32:00.902Z,17.63
2017-04-23T01:33:10.861Z,17.66
2017-04-23T01:34:20.824Z,17.68
2017-04-23T01:35:31.098Z,17.66
2017-04-23T01:36:41.046Z,17.65
2017-04-23T01:37:51.367Z,17.71
2017-04-23T01:39:01.638Z,17.68
2017-04-23T01:40:11.607Z,17.73
2017-04-23T01:41:21.567Z,17.6
2017-04-23T01:42:32.095Z,17.65
2017-04-23T01:43:42.362Z,17.66
2017-04-23T01:44:52.643Z,17.63
2017-04-23T01:46:03.023Z,17.47
2017-04-23T01:47:13.295Z,17.47
2017-04-23T01:48:23.819Z,17.6
2017-04-23T01:49:34.098Z,17.59
2017-04-23T01:50:44.391Z,17.57
2017-04-23T01:51:54.351Z,17.6
2017-04-23T01:53:04.329Z,17.65
2017-04-23T01:54:14.531Z,17.68
2017-04-23T01:55:24.817Z,17.63
2017-04-23T01:56:35.088Z,17.65
2017-04-23T01:57:45.057Z,17.63
2017-04-23T01:58:54.729Z,17.59
2017-04-23T02:00:04.952Z,17.57
2017-04-23T02:01:15.226Z,17.6
2017-04-23T02:02:24.879Z,17.49
2017-04-23T02:03:35.166Z,17.59
2017-04-23T02:04:45.445Z,17.65
2017-04-23T02:05:55.347Z,17.6
2017-04-23T02:07:05.623Z,17.66
2017-04-23T02:08:15.297Z,17.65
2017-04-23T02:09:25.582Z,17.63
2017-04-23T02:10:35.869Z,17.65
2017-04-23T02:11:46.394Z,17.66
2017-04-23T02:12:56.670Z,17.68
2017-04-23T02:14:06.948Z,17.69
2017-04-23T02:15:17.223Z,17.69
2017-04-23T02:16:27.506Z,17.63
2017-04-23T02:17:38.032Z,17.65
2017-04-23T02:18:48.311Z,17.57
2017-04-23T02:19:58.285Z,17.6
2017-04-23T02:21:07.971Z,17.71
2017-04-23T02:22:18.242Z,17.68
2017-04-23T02:23:28.509Z,17.63
2017-04-23T02:24:38.495Z,17.65
2017-04-23T02:25:48.778Z,17.69
2017-04-23T02:26:59.054Z,17.65
2017-04-23T02:28:09.341Z,17.63
2017-04-23T02:29:19.931Z,17.71
2017-04-23T02:30:29.594Z,17.68
2017-04-23T02:31:39.560Z,17.71
2017-04-23T02:32:49.833Z,17.66
2017-04-23T02:34:00.154Z,17.63
2017-04-23T02:35:10.361Z,17.52
2017-04-23T02:36:20.332Z,17.59
2017-04-23T02:37:30.292Z,17.63
2017-04-23T02:38:40.270Z,17.66
2017-04-23T02:39:50.545Z,17.68
2017-04-23T02:41:01.082Z,17.69
2017-04-23T02:42:11.040Z,17.65
2017-04-23T02:43:21.413Z,17.65
2017-04-23T02:44:31.377Z,17.69
2017-04-23T02:45:41.683Z,17.63
2017-04-23T02:46:52.220Z,17.71
2017-04-23T02:48:02.501Z,17.6
2017-04-23T02:49:12.157Z,17.57
2017-04-23T02:50:22.124Z,17.57
2017-04-23T02:51:32.103Z,17.68
2017-04-23T02:52:42.696Z,17.69
2017-04-23T02:53:52.984Z,17.69
2017-04-23T02:55:02.639Z,17.52
2017-04-23T02:56:12.916Z,17.68
2017-04-23T02:57:23.198Z,17.66
2017-04-23T02:58:33.412Z,17.6
2017-04-23T02:59:43.381Z,17.57
2017-04-23T03:00:53.663Z,17.63
2017-04-23T03:02:03.311Z,17.6
2017-04-23T03:03:12.988Z,17.66
2017-04-23T03:04:23.521Z,17.5
2017-04-23T03:05:33.495Z,17.5
2017-04-23T03:06:43.776Z,17.68
2017-04-23T03:07:53.755Z,17.54
2017-04-23T03:09:04.064Z,17.5
2017-04-23T03:10:14.635Z,17.63
2017-04-23T03:11:24.600Z,17.57
2017-04-23T03:12:34.878Z,17.68
2017-04-23T03:13:45.160Z,17.66
2017-04-23T03:14:55.434Z,17.66
2017-04-23T03:16:05.975Z,17.6
2017-04-23T03:17:15.954Z,17.63
2017-04-23T03:18:25.930Z,17.63
2017-04-23T03:19:36.215Z,17.65
2017-04-23T03:20:46.513Z,17.71
2017-04-23T03:21:57.038Z,17.65
2017-04-23T03:23:07.012Z,17.69
2017-04-23T03:24:16.970Z,17.68
2017-04-23T03:25:27.262Z,17.68
2017-04-23T03:26:37.535Z,17.57
2017-04-23T03:27:48.082Z,17.71
2017-04-23T03:28:58.362Z,17.71
2017-04-23T03:30:08.638Z,17.69
2017-04-23T03:31:18.289Z,17.59
2017-04-23T03:32:28.586Z,17.46
2017-04-23T03:33:38.806Z,17.68
2017-04-23T03:34:49.087Z,17.46
2017-04-23T03:35:59.054Z,17.54
2017-04-23T03:37:09.019Z,17.57
2017-04-23T03:38:19.302Z,17.65
2017-04-23T03:39:29.837Z,17.71
2017-04-23T03:40:39.807Z,17.68
2017-04-23T03:41:49.774Z,17.52
2017-04-23T03:42:59.751Z,17.47
2017-04-23T03:44:09.718Z,17.6
2017-04-23T03:45:20.251Z,17.68
2017-04-23T03:46:30.530Z,17.63
2017-04-23T03:47:40.499Z,17.66
2017-04-23T03:48:50.477Z,17.68
2017-04-23T03:50:00.767Z,17.6
2017-04-23T03:51:11.345Z,17.6
2017-04-23T03:52:21.625Z,17.52
2017-04-23T03:53:31.905Z,17.66
2017-04-23T03:54:42.189Z,17.65
2017-04-23T03:55:51.850Z,17.71
2017-04-23T03:57:01.749Z,17.56
2017-04-23T03:58:12.027Z,17.63
2017-04-23T03:59:21.995Z,17.69
2017-04-23T04:00:32.270Z,17.71
2017-04-23T04:01:42.549Z,17.6
2017-04-23T04:02:53.071Z,17.65
2017-04-23T04:04:03.370Z,17.65
2017-04-23T04:05:13.649Z,17.66
2017-04-23T04:06:23.920Z,17.65
2017-04-23T04:07:33.887Z,17.71
2017-04-23T04:08:44.104Z,17.65
2017-04-23T04:09:54.387Z,17.59
2017-04-23T04:11:04.666Z,17.6
2017-04-23T04:12:14.625Z,17.71
2017-04-23T04:13:24.905Z,17.63
2017-04-23T04:14:34.819Z,17.6
2017-04-23T04:15:44.784Z,17.6
2017-04-23T04:16:55.070Z,17.59
2017-04-23T04:18:05.339Z,17.59
2017-04-23T04:19:15.619Z,17.53
2017-04-23T04:20:25.837Z,17.54
2017-04-23T04:21:36.113Z,17.52
2017-04-23T04:22:46.071Z,17.49
2017-04-23T04:23:55.723Z,17.47
2017-04-23T04:25:05.696Z,17.5
2017-04-23T04:26:15.957Z,17.41
2017-04-23T04:27:25.841Z,17.46
2017-04-23T04:28:36.117Z,17.52
2017-04-23T04:29:46.085Z,17.54
2017-04-23T04:30:56.370Z,17.57
2017-04-23T04:32:06.948Z,17.56
2017-04-23T04:33:17.224Z,17.66
2017-04-23T04:34:26.882Z,17.71
2017-04-23T04:35:36.852Z,17.63
2017-04-23T04:36:46.834Z,17.72
2017-04-23T04:37:57.361Z,17.65
2017-04-23T04:39:07.635Z,17.69
2017-04-23T04:40:17.312Z,17.68
2017-04-23T04:41:27.601Z,17.72
2017-04-23T04:42:37.600Z,17.56
2017-04-23T04:43:48.132Z,17.59
2017-04-23T04:44:58.408Z,17.6
2017-04-23T04:46:08.386Z,17.71
2017-04-23T04:47:18.654Z,17.69
2017-04-23T04:48:28.623Z,17.52
2017-04-23T04:49:39.150Z,17.53
2017-04-23T04:50:49.441Z,17.57
2017-04-23T04:51:59.407Z,17.71
2017-04-23T04:53:09.684Z,17.65
2017-04-23T04:54:19.973Z,17.68
2017-04-23T04:55:30.200Z,17.66
2017-04-23T04:56:40.164Z,17.65
2017-04-23T04:57:50.443Z,17.78
2017-04-23T04:59:00.727Z,17.68
2017-04-23T05:00:11.003Z,17.69
2017-04-23T05:01:21.214Z,17.69
2017-04-23T05:02:31.485Z,17.65
2017-04-23T05:03:41.776Z,17.68
2017-04-23T05:04:52.064Z,17.53
2017-04-23T05:06:02.344Z,17.69
2017-04-23T05:07:12.871Z,17.65
2017-04-23T05:08:23.142Z,17.63
2017-04-23T05:09:33.102Z,17.6
2017-04-23T05:10:43.385Z,17.66
2017-04-23T05:11:53.669Z,17.63
2017-04-23T05:13:04.201Z,17.63
2017-04-23T05:14:14.163Z,17.65
2017-04-23T05:15:24.135Z,17.57
2017-04-23T05:16:34.411Z,17.71
2017-04-23T05:17:44.082Z,17.65
2017-04-23T05:18:54.615Z,17.6
2017-04-23T05:20:04.895Z,17.66
2017-04-23T05:21:15.178Z,17.66
2017-04-23T05:22:25.452Z,17.66
2017-04-23T05:23:35.421Z,17.69
2017-04-23T05:24:45.635Z,17.63
2017-04-23T05:25:55.911Z,17.69
2017-04-23T05:27:05.891Z,17.69
2017-04-23T05:28:16.182Z,17.66
2017-04-23T05:29:26.147Z,17.59
2017-04-23T05:30:36.362Z,17.65
2017-04-23T05:31:46.004Z,17.65
2017-04-23T05:32:55.968Z,17.69
2017-04-23T05:34:05.933Z,17.65
2017-04-23T05:35:15.898Z,17.71
2017-04-23T05:36:26.452Z,17.56
2017-04-23T05:37:36.429Z,17.66
2017-04-23T05:38:46.714Z,17.65
2017-04-23T05:39:56.985Z,17.6
2017-04-23T05:41:06.945Z,17.79
2017-04-23T05:42:17.481Z,17.68
2017-04-23T05:43:27.761Z,17.63
2017-04-23T05:44:38.055Z,17.66
2017-04-23T05:45:48.349Z,17.6
2017-04-23T05:46:58.318Z,17.71
2017-04-23T05:48:08.848Z,17.73
2017-04-23T05:49:18.830Z,17.69
2017-04-23T05:50:29.122Z,17.72
2017-04-23T05:51:39.086Z,17.68
2017-04-23T05:52:48.745Z,17.65
2017-04-23T05:53:58.968Z,17.68
2017-04-23T05:55:09.245Z,17.69
2017-04-23T05:56:18.900Z,17.76
2017-04-23T05:57:29.192Z,17.79
2017-04-23T05:58:39.162Z,17.69
2017-04-23T05:59:49.382Z,17.78
2017-04-23T06:00:59.368Z,17.84
2017-04-23T06:02:09.650Z,17.87
2017-04-23T06:03:19.925Z,17.87
2017-04-23T06:04:29.584Z,17.73
2017-04-23T06:05:39.793Z,17.72
2017-04-23T06:06:49.757Z,17.75
2017-04-23T06:08:00.042Z,17.66
2017-04-23T06:09:10.343Z,17.6
2017-04-23T06:10:20.315Z,17.66
2017-04-23T06:11:30.899Z,17.72
2017-04-23T06:12:41.175Z,17.76
2017-04-23T06:13:51.463Z,17.72
2017-04-23T06:15:01.752Z,17.69
2017-04-23T06:16:12.042Z,17.84
2017-04-23T06:17:22.585Z,17.78
2017-04-23T06:18:32.865Z,17.84
2017-04-23T06:19:43.141Z,17.82
2017-04-23T06:20:53.105Z,17.9
2017-04-23T06:22:03.096Z,17.79
2017-04-23T06:23:13.632Z,17.8
2017-04-23T06:24:23.908Z,17.79
2017-04-23T06:25:33.575Z,17.75
2017-04-23T06:26:43.871Z,17.82
2017-04-23T06:27:54.171Z,17.75
2017-04-23T06:29:04.389Z,17.78
2017-04-23T06:30:14.672Z,17.82
2017-04-23T06:31:24.972Z,17.78
2017-04-23T06:32:34.941Z,17.86
2017-04-23T06:33:45.235Z,17.87
2017-04-23T06:34:55.783Z,17.71
2017-04-23T06:36:06.064Z,17.72
2017-04-23T06:37:16.338Z,17.75
2017-04-23T06:38:26.616Z,17.88
2017-04-23T06:39:36.935Z,17.75
2017-04-23T06:40:47.468Z,17.84
2017-04-23T06:41:57.745Z,17.8
2017-04-23T06:43:08.027Z,17.8
2017-04-23T06:44:18.313Z,17.86
2017-04-23T06:45:28.605Z,17.8
2017-04-23T06:46:38.811Z,17.84
2017-04-23T06:47:48.795Z,17.86
2017-04-23T06:48:58.462Z,17.86
2017-04-23T06:50:08.127Z,17.91
2017-04-23T06:51:18.097Z,17.9
2017-04-23T06:52:28.621Z,17.88
2017-04-23T06:53:38.910Z,17.84
2017-04-23T06:54:48.871Z,17.73
2017-04-23T06:55:59.166Z,17.72
2017-04-23T06:57:09.130Z,17.84
2017-04-23T06:58:19.341Z,17.72
2017-04-23T06:59:29.329Z,17.79
2017-04-23T07:00:39.633Z,17.78
2017-04-23T07:01:49.909Z,17.72
2017-04-23T07:03:00.193Z,17.73
2017-04-23T07:04:10.432Z,17.76
2017-04-23T07:05:20.416Z,17.71
2017-04-23T07:06:30.727Z,17.73
2017-04-23T07:07:41.008Z,17.68
2017-04-23T07:08:51.303Z,17.73
2017-04-23T07:10:01.891Z,17.86
2017-04-23T07:11:12.181Z,17.8
2017-04-23T07:12:22.460Z,17.87
2017-04-23T07:13:32.760Z,17.84
2017-04-23T07:14:43.064Z,17.94
2017-04-23T07:15:52.970Z,17.82
2017-04-23T07:17:02.946Z,17.69
2017-04-23T07:18:13.458Z,17.79
2017-04-23T07:19:23.423Z,17.8
2017-04-23T07:20:33.404Z,17.86
2017-04-23T07:21:43.625Z,17.84
2017-04-23T07:22:53.916Z,17.82
2017-04-23T07:24:04.221Z,17.82
2017-04-23T07:25:14.509Z,17.75
2017-04-23T07:26:24.796Z,17.69
2017-04-23T07:27:35.346Z,17.82
2017-04-23T07:28:45.652Z,17.87
2017-04-23T07:29:55.934Z,17.82
2017-04-23T07:31:06.233Z,17.91
2017-04-23T07:32:16.506Z,17.93
2017-04-23T07:33:26.725Z,17.93
2017-04-23T07:34:37.017Z,17.9
2017-04-23T07:35:47.300Z,17.9
2017-04-23T07:36:57.594Z,17.91
2017-04-23T07:38:07.562Z,17.94
2017-04-23T07:39:18.091Z,17.88
2017-04-23T07:40:28.382Z,17.87
2017-04-23T07:41:38.036Z,17.75
2017-04-23T07:42:48.315Z,17.76
2017-04-23T07:43:58.288Z,17.82
2017-04-23T07:45:08.815Z,17.78
2017-04-23T07:46:19.098Z,17.82
2017-04-23T07:47:29.058Z,17.73
2017-04-23T07:48:39.028Z,17.79
2017-04-23T07:49:49.314Z,17.91
2017-04-23T07:50:59.835Z,17.9
2017-04-23T07:52:09.838Z,17.94
2017-04-23T07:53:19.803Z,17.95
2017-04-23T07:54:29.775Z,17.91
2017-04-23T07:55:39.768Z,17.9
2017-04-23T07:56:50.376Z,18
2017-04-23T07:58:00.361Z,18.02
2017-04-23T07:59:10.643Z,17.93
2017-04-23T08:00:20.936Z,17.95
2017-04-23T08:01:31.229Z,17.93
2017-04-23T08:02:41.766Z,17.97
2017-04-23T08:03:52.052Z,18.03
2017-04-23T08:05:02.330Z,18
2017-04-23T08:06:12.609Z,17.98
2017-04-23T08:07:22.591Z,18
2017-04-23T08:08:32.819Z,17.97
2017-04-23T08:09:43.105Z,18.03
2017-04-23T08:10:52.760Z,18
2017-04-23T08:12:03.065Z,18.03
2017-04-23T08:13:13.352Z,18.03
2017-04-23T08:14:23.628Z,18.02
2017-04-23T08:15:33.606Z,17.93
2017-04-23T08:16:43.271Z,17.97
2017-04-23T08:17:53.567Z,18.02
2017-04-23T08:19:03.780Z,18.11
2017-04-23T08:20:14.024Z,17.98
2017-04-23T08:21:24.312Z,18.02
2017-04-23T08:22:34.607Z,18.02
2017-04-23T08:23:44.905Z,18.11
2017-04-23T08:24:55.201Z,18.15
2017-04-23T08:26:05.784Z,18.13
2017-04-23T08:27:16.069Z,18.18
2017-04-23T08:28:26.355Z,18.09
2017-04-23T08:29:36.633Z,18.13
2017-04-23T08:30:46.921Z,18.09
2017-04-23T08:31:57.529Z,18.11
2017-04-23T08:33:06.886Z,18.11
2017-04-23T08:34:17.181Z,18.09
2017-04-23T08:35:27.170Z,18.12
2017-04-23T08:36:37.460Z,18.06
2017-04-23T08:37:47.377Z,18.13
2017-04-23T08:38:57.679Z,18.27
2017-04-23T08:40:07.977Z,18.16
2017-04-23T08:41:17.965Z,18.18
2017-04-23T08:42:28.271Z,18.08
2017-04-23T08:43:38.552Z,18.12
2017-04-23T08:44:48.876Z,18.12
2017-04-23T08:45:59.167Z,18.08
2017-04-23T08:47:09.147Z,18.08
2017-04-23T08:48:19.443Z,18.11
2017-04-23T08:49:29.727Z,18.19
2017-04-23T08:50:39.104Z,18.11
2017-04-23T08:51:49.082Z,18.11
2017-04-23T08:52:59.057Z,18.27
2017-04-23T08:54:09.342Z,18.23
2017-04-23T08:55:19.618Z,18.21
2017-04-23T08:56:29.609Z,18.24
2017-04-23T08:57:39.610Z,18.21
2017-04-23T08:58:49.607Z,18.24
2017-04-23T08:59:59.899Z,18.24
2017-04-23T09:01:10.136Z,18.23
2017-04-23T09:02:20.419Z,18.26
2017-04-23T09:03:30.716Z,18.18
2017-04-23T09:04:40.699Z,18.13
2017-04-23T09:05:50.712Z,18.11
2017-04-23T09:07:00.628Z,18.11
2017-04-23T09:08:10.611Z,18.27
2017-04-23T09:09:20.308Z,18.19
2017-04-23T09:10:30.610Z,18.27
2017-04-23T09:11:40.907Z,18.09
2017-04-23T09:12:51.196Z,18.06
2017-04-23T09:14:01.199Z,18.13
2017-04-23T09:15:11.490Z,18.11
2017-04-23T09:16:21.810Z,18.13
2017-04-23T09:17:31.806Z,18.09
2017-04-23T09:18:42.413Z,18.08
2017-04-23T09:19:52.411Z,18.23
2017-04-23T09:21:02.708Z,18.23
2017-04-23T09:22:12.745Z,18.27
2017-04-23T09:23:23.103Z,18.21
2017-04-23T09:24:33.722Z,18.18
2017-04-23T09:25:43.719Z,18.23
2017-04-23T09:26:54.084Z,18.11
2017-04-23T09:28:04.458Z,18.19
2017-04-23T09:29:14.781Z,18.23
2017-04-23T09:30:25.351Z,18.26
2017-04-23T09:31:35.651Z,18.27
2017-04-23T09:32:45.953Z,18.23
2017-04-23T09:33:55.956Z,18.15
2017-04-23T09:35:05.991Z,18.27
2017-04-23T09:36:16.534Z,18.28
2017-04-23T09:37:26.842Z,18.23
2017-04-23T09:38:37.168Z,18.12
2017-04-23T09:39:47.556Z,18.09
2017-04-23T09:40:57.550Z,18.16
2017-04-23T09:42:07.808Z,18.23
2017-04-23T09:43:18.145Z,18.21
2017-04-23T09:44:28.153Z,18.23
2017-04-23T09:45:38.170Z,18.13
2017-04-23T09:46:48.488Z,18.24
2017-04-23T09:47:58.438Z,18.24
2017-04-23T09:49:08.757Z,18.21
2017-04-23T09:50:18.772Z,18.24
2017-04-23T09:51:28.778Z,18.21
2017-04-23T09:52:39.106Z,18.18
2017-04-23T09:53:49.050Z,18.33
2017-04-23T09:54:59.073Z,18.24
2017-04-23T09:56:09.418Z,18.12
2017-04-23T09:57:19.750Z,18.05
2017-04-23T09:58:30.108Z,18.12
2017-04-23T09:59:40.682Z,18.26
2017-04-23T10:00:50.393Z,18.23
2017-04-23T10:02:00.722Z,18.23
2017-04-23T10:03:11.078Z,18.26
2017-04-23T10:04:21.076Z,18.26
2017-04-23T10:05:31.339Z,18.21
2017-04-23T10:06:41.689Z,18.21
2017-04-23T10:07:51.989Z,18.27
2017-04-23T10:09:02.325Z,18.23
2017-04-23T10:10:12.325Z,18.23
2017-04-23T10:11:22.980Z,18.26
2017-04-23T10:12:33.302Z,18.24
2017-04-23T10:13:43.670Z,18.24
2017-04-23T10:14:54.007Z,18.19
2017-04-23T10:16:04.338Z,18.21
2017-04-23T10:17:14.897Z,18.19
2017-04-23T10:18:25.266Z,18.28
2017-04-23T10:19:34.959Z,18.28
2017-04-23T10:20:45.306Z,18.26
2017-04-23T10:21:55.667Z,18.28
2017-04-23T10:23:06.271Z,18.26
2017-04-23T10:24:16.287Z,18.41
2017-04-23T10:25:26.611Z,18.3
2017-04-23T10:26:36.640Z,18.26
2017-04-23T10:27:46.330Z,18.37
2017-04-23T10:28:56.960Z,18.42
2017-04-23T10:30:07.308Z,18.36
2017-04-23T10:31:17.012Z,18.31
2017-04-23T10:32:27.324Z,18.37
2017-04-23T10:33:37.345Z,18.36
2017-04-23T10:34:47.619Z,18.37
2017-04-23T10:35:57.913Z,18.37
2017-04-23T10:37:08.266Z,18.33
2017-04-23T10:38:18.615Z,18.41
2017-04-23T10:39:28.952Z,18.41
2017-04-23T10:40:39.193Z,18.37
2017-04-23T10:41:49.212Z,18.33
2017-04-23T10:42:59.535Z,18.34
2017-04-23T10:44:09.545Z,18.36
2017-04-23T10:45:19.883Z,18.36
2017-04-23T10:46:30.149Z,18.31
2017-04-23T10:47:40.167Z,18.43
2017-04-23T10:48:50.498Z,18.37
2017-04-23T10:50:00.511Z,18.33
2017-04-23T10:51:10.183Z,18.31
2017-04-23T10:52:20.782Z,18.3
2017-04-23T10:53:30.855Z,18.39
2017-04-23T10:54:41.227Z,18.28
2017-04-23T10:55:51.242Z,18.33
2017-04-23T10:57:01.602Z,18.48
2017-04-23T10:58:11.906Z,18.33
2017-04-23T10:59:22.236Z,18.43
2017-04-23T11:00:32.576Z,18.48
2017-04-23T11:01:42.909Z,18.39
2017-04-23T11:02:53.244Z,18.34
2017-04-23T11:04:03.239Z,18.39
2017-04-23T11:05:13.287Z,18.36
2017-04-23T11:06:23.619Z,18.39
2017-04-23T11:07:33.621Z,18.45
2017-04-23T11:08:43.932Z,18.39
2017-04-23T11:09:54.213Z,18.36
2017-04-23T11:11:04.225Z,18.39
2017-04-23T11:12:14.567Z,18.39
2017-04-23T11:13:24.929Z,18.39
2017-04-23T11:14:35.254Z,18.31
2017-04-23T11:15:45.537Z,18.36
2017-04-23T11:16:55.873Z,18.43
2017-04-23T11:18:06.200Z,18.41
2017-04-23T11:19:16.212Z,18.42
2017-04-23T11:20:26.540Z,18.46
2017-04-23T11:21:37.185Z,18.45
2017-04-23T11:22:47.497Z,18.49
2017-04-23T11:23:57.827Z,18.46
2017-04-23T11:25:07.851Z,18.45
2017-04-23T11:26:18.216Z,18.41
2017-04-23T11:27:28.173Z,18.43
2017-04-23T11:28:38.533Z,18.43
2017-04-23T11:29:48.855Z,18.48
2017-04-23T11:30:59.201Z,18.42
2017-04-23T11:32:08.900Z,18.41
2017-04-23T11:33:19.490Z,18.41
2017-04-23T11:34:29.508Z,18.31
2017-04-23T11:35:39.829Z,18.42
2017-04-23T11:36:50.189Z,18.49
2017-04-23T11:38:00.488Z,18.51
2017-04-23T11:39:10.796Z,18.49
2017-04-23T11:40:21.138Z,18.58
2017-04-23T11:41:31.174Z,18.61
2017-04-23T11:42:41.502Z,18.55
2017-04-23T11:43:51.568Z,18.52
2017-04-23T11:45:01.854Z,18.6
2017-04-23T11:46:11.892Z,18.57
2017-04-23T11:47:21.928Z,18.58
2017-04-23T11:48:32.241Z,18.53
2017-04-23T11:49:42.603Z,18.55
2017-04-23T11:50:53.216Z,18.53
2017-04-23T11:52:03.569Z,18.57
2017-04-23T11:53:13.885Z,18.45
2017-04-23T11:54:24.242Z,18.43
2017-04-23T11:55:34.553Z,18.46
2017-04-23T11:56:45.152Z,18.46
2017-04-23T11:57:55.481Z,18.55
2017-04-23T11:59:05.496Z,18.41
2017-04-23T12:00:15.856Z,18.55
2017-04-23T12:01:26.172Z,18.45
2017-04-23T12:02:36.801Z,18.48
2017-04-23T12:03:46.838Z,18.45
2017-04-23T12:04:57.216Z,18.49
2017-04-23T12:06:06.912Z,18.57
2017-04-23T12:07:17.243Z,18.57
2017-04-23T12:08:27.514Z,18.55
2017-04-23T12:09:37.879Z,18.51
2017-04-23T12:10:48.201Z,18.46
2017-04-23T12:11:58.522Z,18.53
2017-04-23T12:13:08.861Z,18.48
2017-04-23T12:14:19.444Z,18.55
2017-04-23T12:15:29.798Z,18.51
2017-04-23T12:16:39.792Z,18.45
2017-04-23T12:17:49.826Z,18.53
2017-04-23T12:18:59.826Z,18.58
2017-04-23T12:20:10.443Z,18.57
2017-04-23T12:21:20.780Z,18.51
2017-04-23T12:22:31.117Z,18.48
2017-04-23T12:23:41.461Z,18.52
2017-04-23T12:24:51.841Z,18.46
2017-04-23T12:26:02.415Z,18.51
2017-04-23T12:27:12.738Z,18.42
2017-04-23T12:28:22.801Z,18.36
2017-04-23T12:29:33.124Z,18.34
2017-04-23T12:30:43.463Z,18.45
2017-04-23T12:31:54.051Z,18.43
2017-04-23T12:33:04.413Z,18.46
2017-04-23T12:34:14.787Z,18.52
2017-04-23T12:35:25.228Z,18.57
2017-04-23T12:36:35.629Z,18.52
2017-04-23T12:37:45.944Z,18.57
2017-04-23T12:38:56.361Z,18.57
2017-04-23T12:40:06.530Z,18.61
2017-04-23T12:41:16.672Z,18.6
2017-04-23T12:42:27.090Z,18.58
2017-04-23T12:43:37.505Z,18.55
2017-04-23T12:44:47.577Z,18.42
2017-04-23T12:45:58.004Z,18.57
2017-04-23T12:47:08.541Z,18.51
2017-04-23T12:48:18.975Z,18.49
2017-04-23T12:49:29.214Z,18.48
2017-04-23T12:50:39.687Z,18.57
2017-04-23T12:51:50.131Z,18.53
2017-04-23T12:53:00.592Z,18.51
2017-04-23T12:54:10.859Z,18.52
2017-04-23T12:55:21.777Z,18.58
2017-04-23T12:56:32.196Z,18.58
2017-04-23T12:57:42.570Z,18.6
2017-04-23T12:58:52.991Z,18.6
2017-04-23T13:00:03.138Z,18.49
2017-04-23T13:01:13.497Z,18.48
2017-04-23T13:02:23.947Z,18.51
2017-04-23T13:03:34.315Z,18.53
2017-04-23T13:04:44.447Z,18.58
2017-04-23T13:05:54.864Z,18.55
2017-04-23T13:07:05.268Z,18.58
2017-04-23T13:08:15.675Z,18.58
2017-04-23T13:09:26.181Z,18.53
2017-04-23T13:10:36.577Z,18.58
2017-04-23T13:11:47.028Z,18.57
2017-04-23T13:12:57.083Z,18.6
2017-04-23T13:14:07.516Z,18.57
2017-04-23T13:15:17.704Z,18.61
2017-04-23T13:16:27.776Z,18.51
2017-04-23T13:17:37.861Z,18.46
2017-04-23T13:18:48.184Z,18.53
2017-04-23T13:19:58.340Z,18.49
2017-04-23T13:21:08.425Z,18.48
2017-04-23T13:22:18.877Z,18.48
2017-04-23T13:23:29.000Z,18.46
2017-04-23T13:24:39.644Z,18.46
2017-04-23T13:25:50.128Z,18.52
2017-04-23T13:27:00.266Z,18.53
2017-04-23T13:28:10.403Z,18.61
2017-04-23T13:29:20.886Z,18.55
2017-04-23T13:30:31.354Z,18.48
2017-04-23T13:31:41.475Z,18.46
2017-04-23T13:32:52.053Z,18.43
2017-04-23T13:34:02.488Z,18.46
2017-04-23T13:35:12.956Z,18.6
2017-04-23T13:36:23.616Z,18.57
2017-04-23T13:37:34.072Z,18.46
2017-04-23T13:38:44.224Z,18.46
2017-04-23T13:39:54.323Z,18.51
2017-04-23T13:41:04.452Z,18.52
2017-04-23T13:42:15.142Z,18.48
2017-04-23T13:43:25.898Z,18.45
2017-04-23T13:44:36.498Z,18.51
2017-04-23T13:45:46.310Z,18.49
2017-04-23T13:46:56.464Z,18.43
2017-04-23T13:48:07.212Z,18.43
2017-04-23T13:49:17.014Z,18.46
2017-04-23T13:50:27.447Z,18.46
2017-04-23T13:51:37.528Z,18.48
2017-04-23T13:52:47.748Z,18.49
2017-04-23T13:53:58.487Z,18.52
2017-04-23T13:55:08.608Z,18.52
2017-04-23T13:56:18.814Z,18.51
2017-04-23T13:57:28.924Z,18.48
2017-04-23T13:58:39.220Z,18.37
2017-04-23T13:59:49.836Z,18.43
2017-04-23T14:00:59.997Z,18.33
2017-04-23T14:02:10.458Z,18.37
2017-04-23T14:03:21.073Z,18.39
2017-04-23T14:04:31.531Z,18.42
2017-04-23T14:05:42.296Z,18.42
2017-04-23T14:06:52.800Z,18.48
2017-04-23T14:08:03.256Z,18.51
2017-04-23T14:09:13.614Z,18.46
2017-04-23T14:10:24.236Z,18.45
2017-04-23T14:11:34.776Z,18.49
2017-04-23T14:12:46.114Z,18.46
2017-04-23T14:13:57.196Z,18.39
2017-04-23T14:15:08.950Z,18.42
2017-04-23T14:16:19.632Z,18.45
2017-04-23T14:17:31.276Z,18.46
2017-04-23T14:18:42.132Z,18.45
2017-04-23T14:19:54.367Z,18.42
2017-04-23T14:21:05.323Z,18.42
2017-04-23T14:22:16.695Z,18.42
2017-04-23T14:23:27.444Z,18.39
2017-04-23T14:24:37.881Z,18.37
2017-04-23T14:25:48.446Z,18.36
2017-04-23T14:26:58.916Z,18.36
2017-04-23T14:28:09.405Z,18.41
2017-04-23T14:29:20.093Z,18.39
2017-04-23T14:30:30.199Z,18.31
2017-04-23T14:31:40.378Z,18.34
2017-04-23T14:32:50.495Z,18.37
2017-04-23T14:34:00.985Z,18.36
2017-04-23T14:35:11.398Z,18.39
2017-04-23T14:36:21.541Z,18.39
2017-04-23T14:37:31.683Z,18.39
2017-04-23T14:38:42.176Z,18.39
2017-04-23T14:39:52.273Z,18.41
2017-04-23T14:41:02.703Z,18.41
2017-04-23T14:42:12.971Z,18.39
2017-04-23T14:43:23.070Z,18.41
2017-04-23T14:44:33.508Z,18.36
2017-04-23T14:45:43.915Z,18.37
2017-04-23T14:46:54.639Z,18.36
2017-04-23T14:48:05.074Z,18.41
2017-04-23T14:49:15.257Z,18.36
2017-04-23T14:50:25.646Z,18.39
2017-04-23T14:51:36.044Z,18.34
2017-04-23T14:52:46.399Z,18.27
2017-04-23T14:53:56.469Z,18.36
2017-04-23T14:55:06.864Z,18.34
2017-04-23T14:56:16.941Z,18.34
2017-04-23T14:57:27.338Z,18.36
2017-04-23T14:58:37.661Z,18.24
2017-04-23T14:59:47.762Z,18.3
2017-04-23T15:00:57.838Z,18.27
2017-04-23T15:02:07.920Z,18.34
2017-04-23T15:03:17.986Z,18.3
2017-04-23T15:04:28.631Z,18.24
2017-04-23T15:05:38.731Z,18.26
2017-04-23T15:06:49.117Z,18.23